createdAt,value
2018-04-09T00:01:53.589Z,8.83
2018-04-09T00:04:20.169Z,7.93
2018-04-09T00:06:47.102Z,9.40
2018-04-09T00:09:13.657Z,8.80
2018-04-09T00:11:40.254Z,9.97
2018-04-09T00:14:06.827Z,8.98
2018-04-09T00:16:33.353Z,9.20
2018-04-09T00:18:59.913Z,9.10
2018-04-09T00:21:26.478Z,8.38
2018-04-09T00:23:53.017Z,8.13
2018-04-09T00:26:19.594Z,8.27
2018-04-09T00:28:46.545Z,8.23
2018-04-09T00:31:13.454Z,8.27
2018-04-09T00:33:40.081Z,9.65
2018-04-09T00:36:06.659Z,8.57
2018-04-09T00:38:33.249Z,9.27
2018-04-09T00:41:00.597Z,7.90
2018-04-09T00:43:27.176Z,8.43
2018-04-09T00:45:53.870Z,8.25
2018-04-09T00:48:20.372Z,9.65
2018-04-09T00:50:47.322Z,8.48
2018-04-09T00:53:14.236Z,9.00
2018-04-09T00:55:40.808Z,8.70
2018-04-09T00:58:07.379Z,9.10
2018-04-09T01:00:33.917Z,9.13
2018-04-09T01:03:00.857Z,9.57
2018-04-09T01:05:27.473Z,8.20
2018-04-09T01:07:54.066Z,9.82
2018-04-09T01:10:21.033Z,9.60
2018-04-09T01:12:48.017Z,8.45
2018-04-09T01:15:14.582Z,7.87
2018-04-09T01:17:41.158Z,8.55
2018-04-09T01:20:07.730Z,8.10
2018-04-09T01:22:34.658Z,7.57
2018-04-09T01:25:01.253Z,8.52
2018-04-09T01:27:27.832Z,7.82
2018-04-09T01:29:54.369Z,7.50
2018-04-09T01:32:20.980Z,7.82
2018-04-09T01:34:47.942Z,7.90
2018-04-09T01:37:14.477Z,7.40
2018-04-09T01:39:41.417Z,7.75
2018-04-09T01:42:07.994Z,8.40
2018-04-09T01:44:34.533Z,8.75
2018-04-09T01:47:01.469Z,8.90
2018-04-09T01:49:28.478Z,9.35
2018-04-09T01:51:55.066Z,7.70
2018-04-09T01:54:21.637Z,8.48
2018-04-09T01:56:48.574Z,10.18
2018-04-09T01:59:15.126Z,9.45
2018-04-09T02:01:41.693Z,9.15
2018-04-09T02:04:08.645Z,8.73
2018-04-09T02:06:35.558Z,10.43
2018-04-09T02:09:02.190Z,8.80
2018-04-09T02:11:28.784Z,10.10
2018-04-09T02:13:55.700Z,10.27
2018-04-09T02:16:22.281Z,10.02
2018-04-09T02:18:48.869Z,9.38
2018-04-09T02:21:15.407Z,9.18
2018-04-09T02:23:41.976Z,9.25
2018-04-09T02:26:08.590Z,10.40
2018-04-09T02:28:35.489Z,10.07
2018-04-09T02:31:02.061Z,9.55
2018-04-09T02:33:28.627Z,8.88
2018-04-09T02:35:55.166Z,9.13
2018-04-09T02:38:21.734Z,9.85
2018-04-09T02:40:48.672Z,8.27
2018-04-09T02:43:15.214Z,8.82
2018-04-09T02:45:41.783Z,9.60
2018-04-09T02:48:08.720Z,9.35
2018-04-09T02:50:35.266Z,8.80
2018-04-09T02:53:01.865Z,9.68
2018-04-09T02:55:28.447Z,9.27
2018-04-09T02:57:54.987Z,9.27
2018-04-09T03:00:21.579Z,8.77
2018-04-09T03:02:48.566Z,9.93
2018-04-09T03:05:15.108Z,9.77
2018-04-09T03:07:41.675Z,9.00
2018-04-09T03:10:08.284Z,10.10
2018-04-09T03:12:35.254Z,10.05
2018-04-09T03:15:01.819Z,8.88
2018-04-09T03:17:28.391Z,9.50
2018-04-09T03:19:54.921Z,8.80
2018-04-09T03:22:21.491Z,8.40
2018-04-09T03:24:48.061Z,9.82
2018-04-09T03:27:14.594Z,8.85
2018-04-09T03:29:41.189Z,9.63
2018-04-09T03:32:07.789Z,8.98
2018-04-09T03:34:34.321Z,8.55
2018-04-09T03:37:00.886Z,9.20
2018-04-09T03:39:27.469Z,8.00
2018-04-09T03:41:54.370Z,9.45
2018-04-09T03:44:20.933Z,8.40
2018-04-09T03:46:47.501Z,8.98
2018-04-09T03:49:14.402Z,8.30
2018-04-09T03:51:41.025Z,9.73
2018-04-09T03:54:07.969Z,10.02
2018-04-09T03:56:34.877Z,8.73
2018-04-09T03:59:01.449Z,9.50
2018-04-09T04:01:28.061Z,10.00
2018-04-09T04:03:54.606Z,9.05
2018-04-09T04:06:21.173Z,8.45
2018-04-09T04:08:47.736Z,9.93
2018-04-09T04:11:14.281Z,8.00
2018-04-09T04:13:40.905Z,9.02
2018-04-09T04:16:19.778Z,10.10
2018-04-09T04:18:58.566Z,9.50
2018-04-09T04:21:37.158Z,8.77
2018-04-09T04:24:03.737Z,10.05
2018-04-09T04:26:30.301Z,10.00
2018-04-09T04:28:56.834Z,9.45
2018-04-09T04:31:23.410Z,10.60
2018-04-09T04:33:50.025Z,9.20
2018-04-09T04:36:16.570Z,9.25
2018-04-09T04:38:43.134Z,10.25
2018-04-09T04:41:09.702Z,8.75
2018-04-09T04:43:36.230Z,9.55
2018-04-09T04:46:02.833Z,9.27
2018-04-09T04:48:29.390Z,10.30
2018-04-09T04:50:55.922Z,8.80
2018-04-09T04:53:22.854Z,7.93
2018-04-09T04:55:49.425Z,8.75
2018-04-09T04:58:16.325Z,10.07
2018-04-09T05:00:42.894Z,10.15
2018-04-09T05:03:09.458Z,9.48
2018-04-09T05:05:35.981Z,8.43
2018-04-09T05:08:02.605Z,8.63
2018-04-09T05:10:29.182Z,7.75
2018-04-09T05:12:55.750Z,8.63
2018-04-09T05:15:22.326Z,9.35
2018-04-09T05:17:48.889Z,8.75
2018-04-09T05:20:15.433Z,9.20
2018-04-09T05:22:42.005Z,7.70
2018-04-09T05:25:08.610Z,6.78
2018-04-09T05:27:35.517Z,8.02
2018-04-09T05:30:02.101Z,7.45
2018-04-09T05:32:28.681Z,6.12
2018-04-09T05:34:55.208Z,7.03
2018-04-09T05:37:22.142Z,7.62
2018-04-09T05:39:48.710Z,6.78
2018-04-09T05:42:15.658Z,7.40
2018-04-09T05:44:42.673Z,6.93
2018-04-09T05:47:09.237Z,6.25
2018-04-09T05:49:35.765Z,7.35
2018-04-09T05:52:02.337Z,6.95
2018-04-09T05:54:28.901Z,7.40
2018-04-09T05:56:55.485Z,6.87
2018-04-09T05:59:22.101Z,10.18
2018-04-09T06:01:48.715Z,7.70
2018-04-09T06:04:15.298Z,8.73
2018-04-09T06:06:42.238Z,8.10
2018-04-09T06:09:08.810Z,7.20
2018-04-09T06:11:35.718Z,8.25
2018-04-09T06:14:02.333Z,7.25
2018-04-09T06:16:28.897Z,7.57
2018-04-09T06:18:55.436Z,7.95
2018-04-09T06:21:22.008Z,7.60
2018-04-09T06:23:48.577Z,7.97
2018-04-09T06:26:15.121Z,7.43
2018-04-09T06:28:41.690Z,8.82
2018-04-09T06:31:08.626Z,9.90
2018-04-09T06:33:35.164Z,8.82
2018-04-09T06:36:01.734Z,7.40
2018-04-09T06:38:28.710Z,7.45
2018-04-09T06:40:55.658Z,7.22
2018-04-09T06:43:22.623Z,6.32
2018-04-09T06:45:49.601Z,6.55
2018-04-09T06:48:16.182Z,6.40
2018-04-09T06:50:42.788Z,5.47
2018-04-09T06:53:09.386Z,5.57
2018-04-09T06:55:35.957Z,6.33
2018-04-09T06:58:03.023Z,6.15
2018-04-09T07:00:30.097Z,5.90
2018-04-09T07:02:56.658Z,5.78
2018-04-09T07:05:23.253Z,5.45
2018-04-09T07:07:49.862Z,5.47
2018-04-09T07:10:16.397Z,5.57
2018-04-09T07:12:43.026Z,5.83
2018-04-09T07:15:09.966Z,5.20
2018-04-09T07:17:36.494Z,4.60
2018-04-09T07:20:03.117Z,4.73
2018-04-09T07:22:29.693Z,4.70
2018-04-09T07:24:56.268Z,5.83
2018-04-09T07:27:22.825Z,7.37
2018-04-09T07:29:49.765Z,6.17
2018-04-09T07:32:16.290Z,7.80
2018-04-09T07:34:42.858Z,6.20
2018-04-09T07:37:09.425Z,6.30
2018-04-09T07:39:36.341Z,5.80
2018-04-09T07:42:02.909Z,6.37
2018-04-09T07:44:29.473Z,5.40
2018-04-09T07:46:56.370Z,6.30
2018-04-09T07:49:22.930Z,5.60
2018-04-09T07:51:49.556Z,4.97
2018-04-09T07:54:16.434Z,5.53
2018-04-09T07:56:42.994Z,4.50
2018-04-09T07:59:09.566Z,5.30
2018-04-09T08:01:36.461Z,3.60
2018-04-09T08:04:03.074Z,4.00
2018-04-09T08:06:30.010Z,3.70
2018-04-09T08:08:56.538Z,3.67
2018-04-09T08:11:23.105Z,2.87
2018-04-09T08:13:49.698Z,3.27
2018-04-09T08:16:16.225Z,3.20
2018-04-09T08:18:43.165Z,2.90
2018-04-09T08:21:10.138Z,3.63
2018-04-09T08:23:37.042Z,3.33
2018-04-09T08:26:03.610Z,3.80
2018-04-09T08:28:30.186Z,5.10
2018-04-09T08:30:57.109Z,5.17
2018-04-09T08:33:23.671Z,4.40
2018-04-09T08:35:50.625Z,3.90
2018-04-09T08:38:17.157Z,5.30
2018-04-09T08:40:43.734Z,4.93
2018-04-09T08:43:10.666Z,4.03
2018-04-09T08:45:37.197Z,4.53
2018-04-09T08:48:03.767Z,4.23
2018-04-09T08:50:30.333Z,4.40
2018-04-09T08:52:57.253Z,5.87
2018-04-09T08:55:23.838Z,4.53
2018-04-09T08:57:50.793Z,4.10
2018-04-09T09:00:17.694Z,4.10
2018-04-09T09:02:44.258Z,4.57
2018-04-09T09:05:10.820Z,5.00
2018-04-09T09:07:37.355Z,3.93
2018-04-09T09:10:03.961Z,3.97
2018-04-09T09:12:30.531Z,4.37
2018-04-09T09:14:57.097Z,4.07
2018-04-09T09:17:23.666Z,4.50
2018-04-09T09:19:50.453Z,4.53
2018-04-09T09:22:16.989Z,4.23
2018-04-09T09:24:43.923Z,3.53
2018-04-09T09:27:10.489Z,3.40
2018-04-09T09:29:37.385Z,4.30
2018-04-09T09:32:03.953Z,3.57
2018-04-09T09:34:30.513Z,3.17
2018-04-09T09:36:57.046Z,3.53
2018-04-09T09:39:23.615Z,3.63
2018-04-09T09:41:50.177Z,4.63
2018-04-09T09:44:17.069Z,3.67
2018-04-09T09:46:43.638Z,2.97
2018-04-09T09:49:10.225Z,3.27
2018-04-09T09:51:37.130Z,3.37
2018-04-09T09:54:03.828Z,3.73
2018-04-09T09:56:30.786Z,3.40
2018-04-09T09:58:57.676Z,3.63
2018-04-09T10:01:27.135Z,3.80
2018-04-09T10:03:53.697Z,3.00
2018-04-09T10:06:20.302Z,3.87
2018-04-09T10:08:46.918Z,3.40
2018-04-09T10:11:13.545Z,2.60
2018-04-09T10:13:40.086Z,2.57
2018-04-09T10:16:06.790Z,2.67
2018-04-09T10:18:33.653Z,2.17
2018-04-09T10:21:00.225Z,2.70
2018-04-09T10:23:26.790Z,2.17
2018-04-09T10:25:53.373Z,2.27
2018-04-09T10:28:19.915Z,2.60
2018-04-09T10:30:46.532Z,1.90
2018-04-09T10:33:13.085Z,1.93
2018-04-09T10:35:39.618Z,2.00
2018-04-09T10:38:06.178Z,2.97
2018-04-09T10:40:32.742Z,3.40
2018-04-09T10:42:59.642Z,2.70
2018-04-09T10:45:26.203Z,2.00
2018-04-09T10:47:52.765Z,2.80
2018-04-09T10:50:19.289Z,2.93
2018-04-09T10:52:45.859Z,2.80
2018-04-09T10:55:12.421Z,2.23
2018-04-09T10:57:39.313Z,2.20
2018-04-09T11:00:05.877Z,2.33
2018-04-09T11:02:32.429Z,2.03
2018-04-09T11:04:58.953Z,2.60
2018-04-09T11:07:25.520Z,2.27
2018-04-09T11:09:52.084Z,2.50
2018-04-09T11:12:18.620Z,2.37
2018-04-09T11:14:45.210Z,2.87
2018-04-09T11:17:12.185Z,2.73
2018-04-09T11:19:38.705Z,2.70
2018-04-09T11:22:05.314Z,2.47
2018-04-09T11:24:31.890Z,2.23
2018-04-09T11:26:58.415Z,2.63
2018-04-09T11:29:24.989Z,2.40
2018-04-09T11:31:51.585Z,2.23
2018-04-09T11:34:18.113Z,2.40
2018-04-09T11:36:44.694Z,2.73
2018-04-09T11:39:11.253Z,2.73
2018-04-09T11:41:37.835Z,2.50
2018-04-09T11:44:04.449Z,2.30
2018-04-09T11:46:31.051Z,2.13
2018-04-09T11:48:57.576Z,2.30
2018-04-09T11:51:24.564Z,2.37
2018-04-09T11:53:51.119Z,2.30
2018-04-09T11:56:17.649Z,2.70
2018-04-09T11:58:44.588Z,2.83
2018-04-09T12:01:11.161Z,2.33
2018-04-09T12:03:37.687Z,2.97
2018-04-09T12:06:04.728Z,2.27
2018-04-09T12:08:31.281Z,2.60
2018-04-09T12:10:57.805Z,2.40
2018-04-09T12:13:24.367Z,2.30
2018-04-09T12:16:05.842Z,2.20
2018-04-09T12:18:32.404Z,2.03
2018-04-09T12:20:58.968Z,3.07
2018-04-09T12:23:25.491Z,2.33
2018-04-09T12:25:52.049Z,2.40
2018-04-09T12:28:18.604Z,2.40
2018-04-09T12:30:45.139Z,2.30
2018-04-09T12:33:11.699Z,2.47
2018-04-09T12:35:38.263Z,2.07
2018-04-09T12:38:05.191Z,2.00
2018-04-09T12:40:31.750Z,2.00
2018-04-09T12:42:58.312Z,1.97
2018-04-09T12:45:25.252Z,2.27
2018-04-09T12:47:51.816Z,2.07
2018-04-09T12:50:18.768Z,2.57
2018-04-09T12:52:45.703Z,1.83
2018-04-09T12:55:12.264Z,2.00
2018-04-09T12:57:38.860Z,2.60
2018-04-09T13:00:05.414Z,2.20
2018-04-09T13:02:31.973Z,1.63
2018-04-09T13:04:58.566Z,1.90
2018-04-09T13:07:25.475Z,2.10
2018-04-09T13:09:52.055Z,2.27
2018-04-09T13:12:18.623Z,1.70
2018-04-09T13:14:45.524Z,1.77
2018-04-09T13:17:12.158Z,1.67
2018-04-09T13:19:38.720Z,1.90
2018-04-09T13:22:05.248Z,2.40
2018-04-09T13:24:31.802Z,1.50
2018-04-09T13:26:58.355Z,2.00
2018-04-09T13:29:24.887Z,1.97
2018-04-09T13:31:51.444Z,1.60
2018-04-09T13:34:18.004Z,1.70
2018-04-09T13:36:44.536Z,2.33
2018-04-09T13:39:11.100Z,1.70
2018-04-09T13:41:37.651Z,2.27
2018-04-09T13:44:04.180Z,1.73
2018-04-09T13:46:30.732Z,2.27
2018-04-09T13:48:57.307Z,1.87
2018-04-09T13:51:23.848Z,1.80
2018-04-09T13:53:50.400Z,1.80
2018-04-09T13:56:16.956Z,2.00
2018-04-09T13:58:43.534Z,1.73
2018-04-09T14:01:10.477Z,1.90
2018-04-09T14:03:37.408Z,1.80
2018-04-09T14:06:03.948Z,1.93
2018-04-09T14:08:30.512Z,2.00
2018-04-09T14:10:57.083Z,2.20
2018-04-09T14:13:24.005Z,1.70
2018-04-09T14:15:50.575Z,2.20
2018-04-09T14:18:17.536Z,1.83
2018-04-09T14:20:44.436Z,1.73
2018-04-09T14:23:10.996Z,2.57
2018-04-09T14:25:37.576Z,2.60
2018-04-09T14:28:04.476Z,1.90
2018-04-09T14:30:31.060Z,1.83
2018-04-09T14:32:57.623Z,1.80
2018-04-09T14:35:24.176Z,2.27
2018-04-09T14:37:51.107Z,2.90
2018-04-09T14:40:17.676Z,2.13
2018-04-09T14:42:44.208Z,2.40
2018-04-09T14:45:10.783Z,2.10
2018-04-09T14:47:37.740Z,1.80
2018-04-09T14:50:04.683Z,2.70
2018-04-09T14:52:31.614Z,3.20
2018-04-09T14:54:58.167Z,2.77
2018-04-09T14:57:24.700Z,2.40
2018-04-09T14:59:51.252Z,3.87
2018-04-09T15:02:17.810Z,3.17
2018-04-09T15:04:44.379Z,3.33
2018-04-09T15:07:11.324Z,3.07
2018-04-09T15:09:37.935Z,2.70
2018-04-09T15:12:04.510Z,2.10
2018-04-09T15:14:31.072Z,3.37
2018-04-09T15:16:58.000Z,2.57
2018-04-09T15:19:24.579Z,2.30
2018-04-09T15:21:51.511Z,2.90
2018-04-09T15:24:18.084Z,2.70
2018-04-09T15:26:44.988Z,2.43
2018-04-09T15:29:11.555Z,2.30
2018-04-09T15:31:38.122Z,2.50
2018-04-09T15:34:04.671Z,2.53
2018-04-09T15:36:31.265Z,2.13
2018-04-09T15:38:57.823Z,2.50
2018-04-09T15:41:24.485Z,2.73
2018-04-09T15:43:51.055Z,1.70
2018-04-09T15:46:17.615Z,2.37
2018-04-09T15:48:44.515Z,2.20
2018-04-09T15:51:11.083Z,2.53
2018-04-09T15:53:37.647Z,2.80
2018-04-09T15:56:04.171Z,2.10
2018-04-09T15:58:30.732Z,2.57
2018-04-09T16:00:57.294Z,2.40
2018-04-09T16:03:23.880Z,2.03
2018-04-09T16:05:50.520Z,1.60
2018-04-09T16:08:17.473Z,2.00
2018-04-09T16:10:44.371Z,1.80
2018-04-09T16:13:10.935Z,2.27
2018-04-09T16:15:37.517Z,2.00
2018-04-09T16:18:04.547Z,1.47
2018-04-09T16:20:31.115Z,2.23
2018-04-09T16:22:58.684Z,1.90
2018-04-09T16:25:25.211Z,2.10
2018-04-09T16:27:51.774Z,1.80
2018-04-09T16:30:18.353Z,1.60
2018-04-09T16:32:44.888Z,1.67
2018-04-09T16:35:11.820Z,1.60
2018-04-09T16:37:38.383Z,1.83
2018-04-09T16:40:05.316Z,1.73
2018-04-09T16:42:31.890Z,2.00
2018-04-09T16:44:58.819Z,1.43
2018-04-09T16:47:25.355Z,2.03
2018-04-09T16:49:51.963Z,1.50
2018-04-09T16:52:18.540Z,1.90
2018-04-09T16:54:45.064Z,2.07
2018-04-09T16:57:11.644Z,2.50
2018-04-09T16:59:38.204Z,2.60
2018-04-09T17:02:04.736Z,2.50
2018-04-09T17:04:31.323Z,2.33
2018-04-09T17:06:57.919Z,2.53
2018-04-09T17:09:24.552Z,2.00
2018-04-09T17:11:51.196Z,2.37
2018-04-09T17:14:17.769Z,2.83
2018-04-09T17:16:44.315Z,2.73
2018-04-09T17:19:10.911Z,2.50
2018-04-09T17:21:37.860Z,1.77
2018-04-09T17:24:04.423Z,1.77
2018-04-09T17:26:31.387Z,2.33
2018-04-09T17:28:57.964Z,1.70
2018-04-09T17:31:24.531Z,2.90
2018-04-09T17:33:51.091Z,2.80
2018-04-09T17:36:17.697Z,2.80
2018-04-09T17:38:44.216Z,2.80
2018-04-09T17:41:11.191Z,2.00
2018-04-09T17:43:37.844Z,2.50
2018-04-09T17:46:04.414Z,2.83
2018-04-09T17:48:31.023Z,2.57
2018-04-09T17:50:57.978Z,1.90
2018-04-09T17:53:24.904Z,3.50
2018-04-09T17:55:51.590Z,3.10
2018-04-09T17:58:18.170Z,2.53
2018-04-09T18:00:44.716Z,2.20
2018-04-09T18:03:11.567Z,2.27
2018-04-09T18:05:38.180Z,2.07
2018-04-09T18:08:05.090Z,1.93
2018-04-09T18:10:31.652Z,2.23
2018-04-09T18:12:58.228Z,2.23
2018-04-09T18:15:25.156Z,2.53
2018-04-09T18:17:51.760Z,2.27
2018-04-09T18:20:18.375Z,3.30
2018-04-09T18:22:45.296Z,2.50
2018-04-09T18:25:11.871Z,2.70
2018-04-09T18:27:38.820Z,2.13
2018-04-09T18:30:05.424Z,2.03
2018-04-09T18:32:32.007Z,2.63
2018-04-09T18:34:58.577Z,2.60
2018-04-09T18:37:25.488Z,2.00
2018-04-09T18:39:52.072Z,2.20
2018-04-09T18:42:19.009Z,2.40
2018-04-09T18:44:45.546Z,2.30
2018-04-09T18:47:12.130Z,2.27
2018-04-09T18:49:39.068Z,2.30
2018-04-09T18:52:05.616Z,2.10
2018-04-09T18:54:32.184Z,2.57
2018-04-09T18:56:59.124Z,2.97
2018-04-09T18:59:25.744Z,2.20
2018-04-09T19:01:52.335Z,2.23
2018-04-09T19:04:19.303Z,2.83
2018-04-09T19:06:45.856Z,2.23
2018-04-09T19:09:12.415Z,2.83
2018-04-09T19:11:39.000Z,2.80
2018-04-09T19:14:05.603Z,2.77
2018-04-09T19:16:32.164Z,2.30
2018-04-09T19:18:58.755Z,2.90
2018-04-09T19:21:25.328Z,3.30
2018-04-09T19:23:52.274Z,2.80
2018-04-09T19:26:19.302Z,2.33
2018-04-09T19:28:45.849Z,2.20
2018-04-09T19:31:12.465Z,2.90
2018-04-09T19:33:39.189Z,2.30
2018-04-09T19:36:12.239Z,2.83
2018-04-09T19:38:44.775Z,2.47
2018-04-09T19:41:30.169Z,3.30
2018-04-09T19:43:57.119Z,2.37
2018-04-09T19:46:24.030Z,2.40
2018-04-09T19:48:50.612Z,2.60
2018-04-09T19:51:17.195Z,2.47
2018-04-09T19:53:43.740Z,3.93
2018-04-09T19:56:10.375Z,2.70
2018-04-09T19:58:37.348Z,2.90
2018-04-09T20:01:03.919Z,3.13
2018-04-09T20:03:30.552Z,3.60
2018-04-09T20:05:57.184Z,2.57
2018-04-09T20:08:23.822Z,3.97
2018-04-09T20:10:50.795Z,3.77
2018-04-09T20:13:17.382Z,3.63
2018-04-09T20:15:43.935Z,3.17
2018-04-09T20:18:10.513Z,3.50
2018-04-09T20:20:37.499Z,3.27
2018-04-09T20:23:04.104Z,2.27
2018-04-09T20:25:30.715Z,3.03
2018-04-09T20:27:57.291Z,2.67
2018-04-09T20:30:23.947Z,2.93
2018-04-09T20:32:50.575Z,2.60
2018-04-09T20:35:17.164Z,2.90
2018-04-09T20:37:44.093Z,3.03
2018-04-09T20:40:10.696Z,2.80
2018-04-09T20:42:37.272Z,3.37
2018-04-09T20:45:03.884Z,3.30
2018-04-09T20:47:30.580Z,3.10
2018-04-09T20:49:57.159Z,3.00
2018-04-09T20:52:24.082Z,3.73
2018-04-09T20:54:50.676Z,2.30
2018-04-09T20:57:17.634Z,3.00
2018-04-09T20:59:44.545Z,2.43
2018-04-09T21:02:11.123Z,3.47
2018-04-09T21:04:38.071Z,3.20
2018-04-09T21:07:04.620Z,3.00
2018-04-09T21:09:31.197Z,2.90
2018-04-09T21:11:57.780Z,3.30
2018-04-09T21:14:24.332Z,2.77
2018-04-09T21:16:50.927Z,2.90
2018-04-09T21:19:18.048Z,2.80
2018-04-09T21:21:44.592Z,2.53
2018-04-09T21:24:11.175Z,3.00
2018-04-09T21:26:38.128Z,2.93
2018-04-09T21:29:04.767Z,3.80
2018-04-09T21:31:31.347Z,3.80
2018-04-09T21:33:57.929Z,3.43
2018-04-09T21:36:24.487Z,3.23
2018-04-09T21:38:51.071Z,4.20
2018-04-09T21:41:18.283Z,3.20
2018-04-09T21:43:45.089Z,2.70
2018-04-09T21:46:12.044Z,3.80
2018-04-09T21:48:39.003Z,2.57
2018-04-09T21:51:05.955Z,2.73
2018-04-09T21:53:32.903Z,3.10
2018-04-09T21:55:59.852Z,2.80
2018-04-09T21:58:26.415Z,3.30
2018-04-09T22:00:53.448Z,3.17
2018-04-09T22:03:20.035Z,3.17
2018-04-09T22:05:53.604Z,3.47
2018-04-09T22:08:20.251Z,3.20
2018-04-09T22:10:53.648Z,3.33
2018-04-09T22:13:20.231Z,3.03
2018-04-09T22:15:46.780Z,2.90
2018-04-09T22:18:13.736Z,2.83
2018-04-09T22:20:40.712Z,3.10
2018-04-09T22:23:07.275Z,3.40
2018-04-09T22:25:33.857Z,2.67
2018-04-09T22:28:00.444Z,3.13
2018-04-09T22:30:27.368Z,2.80
2018-04-09T22:32:53.987Z,3.20
2018-04-09T22:35:20.559Z,2.97
2018-04-09T22:37:47.107Z,3.30
2018-04-09T22:40:13.691Z,2.90
2018-04-09T22:42:40.631Z,3.40
2018-04-09T22:45:07.180Z,3.50
2018-04-09T22:47:33.760Z,3.33
2018-04-09T22:50:00.384Z,3.20
2018-04-09T22:52:27.292Z,3.10
2018-04-09T22:54:53.868Z,3.63
2018-04-09T22:57:20.443Z,2.60
2018-04-09T22:59:47.368Z,3.57
2018-04-09T23:02:13.946Z,2.80
2018-04-09T23:04:40.560Z,3.13
2018-04-09T23:07:07.108Z,3.03
2018-04-09T23:09:33.687Z,3.47
2018-04-09T23:12:00.633Z,2.73
2018-04-09T23:14:27.553Z,3.07
2018-04-09T23:16:54.139Z,2.70
2018-04-09T23:19:21.083Z,3.50
2018-04-09T23:21:47.720Z,3.33
2018-04-09T23:24:14.336Z,3.37
2018-04-09T23:26:40.918Z,2.73
2018-04-09T23:29:07.463Z,2.03
2018-04-09T23:31:34.045Z,3.20
2018-04-09T23:34:00.988Z,3.13
2018-04-09T23:36:27.518Z,2.63
2018-04-09T23:38:54.485Z,2.87
2018-04-09T23:41:21.052Z,3.57
2018-04-09T23:43:47.956Z,2.90
2018-04-09T23:46:14.538Z,3.23
2018-04-09T23:48:41.136Z,3.30
2018-04-09T23:51:07.676Z,2.90
2018-04-09T23:53:34.259Z,3.00
2018-04-09T23:56:00.817Z,3.63
2018-04-09T23:58:27.338Z,2.83
